createdAt,value
2019-06-08T00:02:25.243Z,17.20
2019-06-08T00:04:54.097Z,17.20
2019-06-08T00:07:23.182Z,17.20
2019-06-08T00:09:51.767Z,17.10
2019-06-08T00:12:21.320Z,17.10
2019-06-08T00:14:49.469Z,17.00
2019-06-08T00:17:30.418Z,17.00
2019-06-08T00:19:47.173Z,17.00
2019-06-08T00:22:16.017Z,17.00
2019-06-08T00:24:44.868Z,16.90
2019-06-08T00:27:14.039Z,16.90
2019-06-08T00:29:42.541Z,16.80
2019-06-08T00:32:12.207Z,16.80
2019-06-08T00:34:41.771Z,16.70
2019-06-08T00:37:10.604Z,16.80
2019-06-08T00:39:39.449Z,16.80
2019-06-08T00:42:08.293Z,16.60
2019-06-08T00:44:37.167Z,16.60
2019-06-08T00:47:05.983Z,16.70
2019-06-08T00:49:34.850Z,16.70
2019-06-08T00:52:03.694Z,16.60
2019-06-08T00:54:32.475Z,16.60
2019-06-08T00:57:01.310Z,16.70
2019-06-08T00:59:30.473Z,16.70
2019-06-08T01:01:59.009Z,16.70
2019-06-08T01:04:29.139Z,16.60
2019-06-08T01:06:56.678Z,16.60
2019-06-08T01:09:26.366Z,16.50
2019-06-08T01:11:55.095Z,16.50
2019-06-08T01:14:24.848Z,16.60
2019-06-08T01:16:52.767Z,16.50
2019-06-08T01:19:21.613Z,16.60
2019-06-08T01:21:50.445Z,16.60
2019-06-08T01:24:19.682Z,16.60
2019-06-08T01:26:48.118Z,16.50
2019-06-08T01:29:16.963Z,16.50
2019-06-08T01:31:45.803Z,16.50
2019-06-08T01:34:14.644Z,16.50
2019-06-08T01:36:43.497Z,16.50
2019-06-08T01:39:12.325Z,16.50
2019-06-08T01:41:41.180Z,16.50
2019-06-08T01:44:10.029Z,16.40
2019-06-08T01:46:39.600Z,16.40
2019-06-08T01:49:08.437Z,16.50
2019-06-08T01:51:37.291Z,16.40
2019-06-08T01:54:06.137Z,16.50
2019-06-08T01:56:34.979Z,16.40
2019-06-08T01:59:03.813Z,16.50
2019-06-08T02:01:34.018Z,16.50
2019-06-08T02:04:01.515Z,16.50
2019-06-08T02:06:30.450Z,16.60
2019-06-08T02:08:59.212Z,16.60
2019-06-08T02:11:28.769Z,16.60
2019-06-08T02:13:56.875Z,16.50
2019-06-08T02:16:25.783Z,16.40
2019-06-08T02:18:54.558Z,16.40
2019-06-08T02:21:23.381Z,16.40
2019-06-08T02:23:52.973Z,16.40
2019-06-08T02:26:22.549Z,16.40
2019-06-08T02:28:51.407Z,16.30
2019-06-08T02:31:20.256Z,16.20
2019-06-08T02:33:49.098Z,16.20
2019-06-08T02:36:17.933Z,16.20
2019-06-08T02:38:46.790Z,16.20
2019-06-08T02:41:15.606Z,16.10
2019-06-08T02:43:44.439Z,16.10
2019-06-08T02:46:13.273Z,16.10
2019-06-08T02:49:02.702Z,16.20
2019-06-08T02:51:10.941Z,16.20
2019-06-08T02:53:41.422Z,16.20
2019-06-08T02:56:08.612Z,16.20
2019-06-08T02:58:40.314Z,16.20
2019-06-08T03:01:06.264Z,16.10
2019-06-08T03:03:35.752Z,16.10
2019-06-08T03:06:03.935Z,16.10
2019-06-08T03:08:36.294Z,16.10
2019-06-08T03:11:04.510Z,16.10
2019-06-08T03:13:33.959Z,16.10
2019-06-08T03:16:02.179Z,16.10
2019-06-08T03:18:31.559Z,16.00
2019-06-08T03:20:59.862Z,16.00
2019-06-08T03:23:28.698Z,16.00
2019-06-08T03:25:58.441Z,15.90
2019-06-08T03:28:27.114Z,15.90
2019-06-08T03:30:55.944Z,15.90
2019-06-08T03:33:24.786Z,16.00
2019-06-08T03:35:57.931Z,15.90
2019-06-08T03:38:23.202Z,15.90
2019-06-08T03:40:52.055Z,15.90
2019-06-08T03:43:20.898Z,15.80
2019-06-08T03:45:49.749Z,15.80
2019-06-08T03:48:19.317Z,15.70
2019-06-08T03:50:48.204Z,15.70
2019-06-08T03:53:16.995Z,15.70
2019-06-08T03:55:47.281Z,15.60
2019-06-08T03:58:14.708Z,15.60
2019-06-08T04:00:44.420Z,15.60
2019-06-08T04:03:12.528Z,15.70
2019-06-08T04:05:42.700Z,15.70
2019-06-08T04:08:10.801Z,15.70
2019-06-08T04:10:39.865Z,15.70
2019-06-08T04:13:11.337Z,15.70
2019-06-08T04:15:37.974Z,15.70
2019-06-08T04:18:06.160Z,15.70
2019-06-08T04:20:34.979Z,15.70
2019-06-08T04:23:03.801Z,15.70
2019-06-08T04:25:33.380Z,15.70
2019-06-08T04:28:02.219Z,15.60
2019-06-08T04:30:31.784Z,15.60
2019-06-08T04:33:00.613Z,15.60
2019-06-08T04:35:29.448Z,15.60
2019-06-08T04:37:58.323Z,15.60
2019-06-08T04:40:27.140Z,15.60
2019-06-08T04:42:55.984Z,15.50
2019-06-08T04:45:24.821Z,15.50
2019-06-08T04:47:53.668Z,15.60
2019-06-08T04:50:24.221Z,15.60
2019-06-08T04:52:51.346Z,15.60
2019-06-08T04:55:20.186Z,15.50
2019-06-08T04:57:50.802Z,15.60
2019-06-08T05:00:17.856Z,15.60
2019-06-08T05:02:48.875Z,15.50
2019-06-08T05:05:15.572Z,15.60
2019-06-08T05:07:45.936Z,15.50
2019-06-08T05:10:13.248Z,15.50
2019-06-08T05:12:43.387Z,15.50
2019-06-08T05:15:10.949Z,15.50
2019-06-08T05:17:41.293Z,15.50
2019-06-08T05:20:09.365Z,15.60
2019-06-08T05:22:39.413Z,15.70
2019-06-08T05:25:07.048Z,15.70
2019-06-08T05:27:35.911Z,15.70
2019-06-08T05:30:08.758Z,15.80
2019-06-08T05:32:33.601Z,15.70
2019-06-08T05:35:02.435Z,15.60
2019-06-08T05:37:31.299Z,15.60
2019-06-08T05:40:00.135Z,15.40
2019-06-08T05:42:28.980Z,15.60
2019-06-08T05:44:57.813Z,15.70
2019-06-08T05:47:27.382Z,15.70
2019-06-08T05:49:56.233Z,15.80
2019-06-08T05:52:25.081Z,15.80
2019-06-08T05:54:53.934Z,15.80
2019-06-08T05:57:22.765Z,15.90
2019-06-08T05:59:52.368Z,16.00
2019-06-08T06:02:21.956Z,15.90
2019-06-08T06:07:20.293Z,15.80
2019-06-08T06:09:49.170Z,15.80
2019-06-08T06:12:18.010Z,15.70
2019-06-08T06:14:46.902Z,15.70
2019-06-08T06:17:15.684Z,15.70
2019-06-08T06:19:45.166Z,15.70
2019-06-08T06:22:13.393Z,15.90
2019-06-08T06:24:43.686Z,15.90
2019-06-08T06:27:11.112Z,16.00
2019-06-08T06:29:41.320Z,16.10
2019-06-08T06:32:08.798Z,16.00
2019-06-08T06:34:37.639Z,16.00
2019-06-08T06:37:07.258Z,15.90
2019-06-08T06:39:36.848Z,15.80
2019-06-08T06:42:05.668Z,15.60
2019-06-08T06:44:34.513Z,15.60
2019-06-08T06:47:03.354Z,15.80
2019-06-08T06:49:32.203Z,15.80
2019-06-08T06:52:01.787Z,15.80
2019-06-08T06:54:30.621Z,15.90
2019-06-08T06:56:59.482Z,15.80
2019-06-08T06:59:28.325Z,15.90
2019-06-08T07:01:57.761Z,16.00
2019-06-08T07:04:25.998Z,16.00
2019-06-08T07:06:54.840Z,16.10
2019-06-08T07:09:23.700Z,16.20
2019-06-08T07:11:53.000Z,16.30
2019-06-08T07:14:21.407Z,16.30
2019-06-08T07:16:50.253Z,16.30
2019-06-08T07:19:19.088Z,16.20
2019-06-08T07:24:18.124Z,16.30
2019-06-08T07:26:48.283Z,16.30
2019-06-08T07:29:16.524Z,16.40
2019-06-08T07:31:46.912Z,16.50
2019-06-08T07:34:14.209Z,16.60
2019-06-08T07:36:43.084Z,16.60
2019-06-08T07:39:12.678Z,16.80
2019-06-08T07:41:42.310Z,16.90
2019-06-08T07:44:11.130Z,17.10
2019-06-08T07:46:39.973Z,17.10
2019-06-08T07:49:09.579Z,17.30
2019-06-08T07:51:39.156Z,17.40
2019-06-08T07:54:07.986Z,17.50
2019-06-08T07:56:36.842Z,17.50
2019-06-08T07:59:05.697Z,17.70
2019-06-08T08:01:36.532Z,17.70
2019-06-08T08:04:04.140Z,17.70
2019-06-08T08:06:33.731Z,18.00
2019-06-08T08:09:02.615Z,18.20
2019-06-08T08:11:31.458Z,18.10
2019-06-08T08:14:00.328Z,18.10
2019-06-08T08:16:29.938Z,17.90
2019-06-08T08:18:59.724Z,18.10
2019-06-08T08:21:29.503Z,18.20
2019-06-08T08:23:59.407Z,18.10
2019-06-08T08:26:27.284Z,18.20
2019-06-08T08:28:55.220Z,18.30
2019-06-08T08:31:23.038Z,18.30
2019-06-08T08:33:52.990Z,18.10
2019-06-08T08:36:21.045Z,18.30
2019-06-08T08:38:50.669Z,18.30
2019-06-08T08:41:18.435Z,18.30
2019-06-08T08:43:48.505Z,18.00
2019-06-08T08:46:17.325Z,18.00
2019-06-08T08:48:45.689Z,17.90
2019-06-08T08:51:14.536Z,18.00
2019-06-08T08:53:43.380Z,18.00
2019-06-08T08:56:12.969Z,18.10
2019-06-08T08:58:41.806Z,18.10
2019-06-08T09:01:10.643Z,18.10
2019-06-08T09:03:39.684Z,18.50
2019-06-08T09:06:08.790Z,18.70
2019-06-08T09:08:37.720Z,19.00
2019-06-08T09:11:07.992Z,18.90
2019-06-08T09:13:37.558Z,18.70
2019-06-08T09:16:04.623Z,18.80
2019-06-08T09:18:33.307Z,18.60
2019-06-08T09:21:02.903Z,18.70
2019-06-08T09:23:31.031Z,19.00
2019-06-08T09:26:07.618Z,19.20
2019-06-08T09:28:29.499Z,19.10
2019-06-08T09:31:00.353Z,19.20
2019-06-08T09:33:28.786Z,19.40
2019-06-08T09:35:58.190Z,19.50
2019-06-08T09:38:28.471Z,19.70
2019-06-08T09:40:54.824Z,19.50
2019-06-08T09:43:23.340Z,19.30
2019-06-08T09:45:54.278Z,19.50
2019-06-08T09:50:51.463Z,19.90
2019-06-08T09:53:28.498Z,20.00
2019-06-08T09:55:49.845Z,20.20
2019-06-08T09:58:19.449Z,20.00
2019-06-08T10:00:48.886Z,20.00
2019-06-08T10:03:18.670Z,19.90
2019-06-08T10:05:48.256Z,19.80
2019-06-08T10:08:14.887Z,19.90
2019-06-08T10:10:43.703Z,19.90
2019-06-08T10:13:12.571Z,19.90
2019-06-08T10:15:42.157Z,19.90
2019-06-08T10:18:11.005Z,19.90
2019-06-08T10:20:39.836Z,20.10
2019-06-08T10:25:38.549Z,20.30
2019-06-08T10:28:13.201Z,20.50
2019-06-08T10:30:38.302Z,20.30
2019-06-08T10:33:05.763Z,20.10
2019-06-08T10:35:33.581Z,20.10
2019-06-08T10:38:06.481Z,19.90
2019-06-08T10:40:31.229Z,19.70
2019-06-08T10:43:01.475Z,19.70
2019-06-08T10:45:29.632Z,20.10
2019-06-08T10:48:00.832Z,20.30
2019-06-08T10:50:28.767Z,20.30
2019-06-08T10:52:59.408Z,20.40
2019-06-08T10:55:25.044Z,20.30
2019-06-08T10:57:54.642Z,20.30
2019-06-08T11:00:28.397Z,20.00
2019-06-08T11:02:59.006Z,20.10
2019-06-08T11:05:27.943Z,20.40
2019-06-08T11:07:54.529Z,20.80
2019-06-08T11:12:52.810Z,21.00
2019-06-08T11:15:21.641Z,21.20
2019-06-08T11:17:50.474Z,21.30
2019-06-08T11:20:19.343Z,21.30
2019-06-08T11:22:50.081Z,21.50
2019-06-08T11:25:19.735Z,21.40
2019-06-08T11:27:47.510Z,21.30
2019-06-08T11:30:23.690Z,21.40
2019-06-08T11:32:44.324Z,21.50
2019-06-08T11:35:13.170Z,21.60
2019-06-08T11:37:42.002Z,21.40
2019-06-08T11:40:12.613Z,21.10
2019-06-08T11:42:39.685Z,20.90
2019-06-08T11:45:11.156Z,20.90
2019-06-08T11:47:39.106Z,21.10
2019-06-08T11:50:11.683Z,21.30
2019-06-08T11:52:38.250Z,21.10
2019-06-08T11:55:07.480Z,21.40
2019-06-08T11:57:37.324Z,21.30
2019-06-08T12:00:10.765Z,21.60
2019-06-08T12:02:34.366Z,21.20
2019-06-08T12:05:03.753Z,21.50
2019-06-08T12:07:32.064Z,21.40
2019-06-08T12:12:30.356Z,21.60
2019-06-08T12:14:59.252Z,21.70
2019-06-08T12:17:28.100Z,21.50
2019-06-08T12:19:57.720Z,21.60
2019-06-08T12:22:25.769Z,21.80
2019-06-08T12:24:54.651Z,21.80
2019-06-08T12:27:33.542Z,21.60
2019-06-08T12:29:53.078Z,21.40
2019-06-08T12:32:21.909Z,21.20
2019-06-08T12:34:50.758Z,21.90
2019-06-08T12:37:22.164Z,21.80
2019-06-08T12:39:48.635Z,22.00
2019-06-08T12:42:20.806Z,21.90
2019-06-08T12:44:47.575Z,22.20
2019-06-08T12:47:18.053Z,22.80
2019-06-08T12:49:43.923Z,23.10
2019-06-08T12:52:14.526Z,23.10
2019-06-08T12:54:56.539Z,23.10
2019-06-08T12:57:14.085Z,23.50
2019-06-08T12:59:40.795Z,24.00
2019-06-08T13:02:14.831Z,23.90
2019-06-08T13:04:38.562Z,23.70
2019-06-08T13:07:08.832Z,23.70
2019-06-08T13:09:38.202Z,23.80
2019-06-08T13:12:05.011Z,24.10
2019-06-08T13:14:33.850Z,24.50
2019-06-08T13:17:02.688Z,24.30
2019-06-08T13:19:31.533Z,23.90
2019-06-08T13:22:01.152Z,23.40
2019-06-08T13:24:30.026Z,23.50
2019-06-08T13:26:58.872Z,23.30
2019-06-08T13:29:28.127Z,23.40
2019-06-08T13:31:58.636Z,23.20
2019-06-08T13:34:28.319Z,23.70
2019-06-08T13:36:54.978Z,23.40
2019-06-08T13:39:24.567Z,23.70
2019-06-08T13:41:53.425Z,23.90
2019-06-08T13:44:22.265Z,23.60
2019-06-08T13:46:51.130Z,23.00
2019-06-08T13:49:25.504Z,22.90
2019-06-08T13:51:50.781Z,23.40
2019-06-08T13:54:19.584Z,23.70
2019-06-08T13:56:47.919Z,23.70
2019-06-08T13:59:19.201Z,24.00
2019-06-08T14:01:44.188Z,23.50
2019-06-08T14:04:14.970Z,23.60
2019-06-08T14:06:42.662Z,23.50
2019-06-08T14:09:11.464Z,23.90
2019-06-08T14:11:41.055Z,23.80
2019-06-08T14:14:09.893Z,23.50
2019-06-08T14:16:39.071Z,23.70
2019-06-08T14:19:08.561Z,24.30
2019-06-08T14:21:41.115Z,24.40
2019-06-08T14:24:07.616Z,24.70
2019-06-08T14:26:34.096Z,24.30
2019-06-08T14:29:02.931Z,24.20
2019-06-08T14:31:32.253Z,24.50
2019-06-08T14:34:01.401Z,24.50
2019-06-08T14:36:31.011Z,25.10
2019-06-08T14:39:02.478Z,25.20
2019-06-08T14:41:31.540Z,24.90
2019-06-08T14:43:58.663Z,24.50
2019-06-08T14:46:28.622Z,24.50
2019-06-08T14:48:55.368Z,24.90
2019-06-08T14:51:27.635Z,24.80
2019-06-08T14:53:53.799Z,24.40
2019-06-08T14:56:22.844Z,24.50
2019-06-08T14:58:52.222Z,24.40
2019-06-08T15:01:22.702Z,24.30
2019-06-08T15:03:50.724Z,24.90
2019-06-08T15:06:19.598Z,25.00
2019-06-08T15:08:50.360Z,25.10
2019-06-08T15:11:18.365Z,25.10
2019-06-08T15:13:48.738Z,25.20
2019-06-08T15:16:18.021Z,25.00
2019-06-08T15:18:45.301Z,25.20
2019-06-08T15:21:33.493Z,25.30
2019-06-08T15:24:03.073Z,24.90
2019-06-08T15:26:39.798Z,24.90
2019-06-08T15:29:00.750Z,24.90
2019-06-08T15:31:31.530Z,24.90
2019-06-08T15:34:01.419Z,25.10
2019-06-08T15:36:29.759Z,25.60
2019-06-08T15:38:56.913Z,25.80
2019-06-08T15:41:26.557Z,25.70
2019-06-08T15:43:54.617Z,25.10
2019-06-08T15:46:24.105Z,25.50
2019-06-08T15:48:52.306Z,25.40
2019-06-08T15:51:22.093Z,24.80
2019-06-08T15:53:49.995Z,25.30
2019-06-08T15:56:18.842Z,25.10
2019-06-08T15:58:48.663Z,25.40
2019-06-08T16:01:16.508Z,25.60
2019-06-08T16:03:45.451Z,25.40
2019-06-08T16:06:14.201Z,25.90
2019-06-08T16:08:43.811Z,25.50
2019-06-08T16:11:13.413Z,25.30
2019-06-08T16:13:42.263Z,25.70
2019-06-08T16:16:11.103Z,25.70
2019-06-08T16:18:39.964Z,25.40
2019-06-08T16:21:08.819Z,25.20
2019-06-08T16:23:37.658Z,25.60
2019-06-08T16:26:07.249Z,25.70
2019-06-08T16:28:36.339Z,25.20
2019-06-08T16:31:05.658Z,24.90
2019-06-08T16:33:33.769Z,24.90
2019-06-08T16:36:02.643Z,25.10
2019-06-08T16:38:32.355Z,25.00
2019-06-08T16:41:00.339Z,24.80
2019-06-08T16:43:29.181Z,25.30
2019-06-08T16:45:57.999Z,25.30
2019-06-08T16:48:27.950Z,24.80
2019-06-08T16:50:56.457Z,24.70
2019-06-08T16:53:25.310Z,24.50
2019-06-08T16:55:54.155Z,24.60
2019-06-08T16:58:23.003Z,24.50
2019-06-08T17:00:51.845Z,24.70
2019-06-08T17:03:20.697Z,24.40
2019-06-08T17:05:49.565Z,24.40
2019-06-08T17:08:18.383Z,24.50
2019-06-08T17:10:47.227Z,24.40
2019-06-08T17:13:16.069Z,24.20
2019-06-08T17:15:45.675Z,24.10
2019-06-08T17:18:15.263Z,23.80
2019-06-08T17:20:44.149Z,23.90
2019-06-08T17:23:12.955Z,23.60
2019-06-08T17:25:41.804Z,23.50
2019-06-08T17:28:10.666Z,23.20
2019-06-08T17:30:39.599Z,22.90
2019-06-08T17:35:38.069Z,22.90
2019-06-08T17:38:06.832Z,22.70
2019-06-08T17:40:36.418Z,22.40
2019-06-08T17:43:05.275Z,22.60
2019-06-08T17:45:34.262Z,22.50
2019-06-08T17:48:02.964Z,22.50
2019-06-08T17:50:32.685Z,22.40
2019-06-08T17:53:00.664Z,22.40
2019-06-08T17:55:30.243Z,22.10
2019-06-08T17:57:59.091Z,22.10
2019-06-08T18:00:27.949Z,22.20
2019-06-08T18:02:57.753Z,22.20
2019-06-08T18:05:28.158Z,22.00
2019-06-08T18:10:27.292Z,22.00
2019-06-08T18:12:54.265Z,22.00
2019-06-08T18:15:23.122Z,21.80
2019-06-08T18:17:51.965Z,21.70
2019-06-08T18:20:20.826Z,21.70
2019-06-08T18:22:50.471Z,21.70
2019-06-08T18:25:20.037Z,21.70
2019-06-08T18:28:04.967Z,21.70
2019-06-08T18:30:19.131Z,21.50
2019-06-08T18:32:48.558Z,21.40
2019-06-08T18:35:15.472Z,21.30
2019-06-08T18:37:45.517Z,21.30
2019-06-08T18:40:13.191Z,21.40
2019-06-08T18:42:43.149Z,21.40
2019-06-08T18:45:10.888Z,21.40
2019-06-08T18:47:40.830Z,21.30
2019-06-08T18:50:09.323Z,21.20
2019-06-08T18:52:40.534Z,21.10
2019-06-08T18:55:08.336Z,21.00
2019-06-08T18:57:38.086Z,21.00
2019-06-08T19:00:10.976Z,20.90
2019-06-08T19:02:33.669Z,20.80
2019-06-08T19:05:02.515Z,20.70
2019-06-08T19:07:31.359Z,20.70
2019-06-08T19:10:00.207Z,20.50
2019-06-08T19:12:29.042Z,20.40
2019-06-08T19:14:58.582Z,20.40
2019-06-08T19:17:28.496Z,20.40
2019-06-08T19:19:57.926Z,20.40
2019-06-08T19:22:25.174Z,20.20
2019-06-08T19:24:54.039Z,20.20
2019-06-08T19:27:22.883Z,20.30
2019-06-08T19:29:51.994Z,20.20
2019-06-08T19:32:20.566Z,20.10
2019-06-08T19:37:18.843Z,20.00
2019-06-08T19:39:48.234Z,20.00
2019-06-08T19:42:17.554Z,19.90
2019-06-08T19:44:55.795Z,20.00
2019-06-08T19:47:14.254Z,20.00
2019-06-08T19:49:43.103Z,20.00
2019-06-08T19:52:11.962Z,20.00
2019-06-08T19:54:43.695Z,20.00
2019-06-08T19:57:10.436Z,20.00
2019-06-08T19:59:39.714Z,20.00
2019-06-08T20:02:08.784Z,20.00
2019-06-08T20:04:38.622Z,20.00
2019-06-08T20:07:08.462Z,19.90
2019-06-08T20:09:34.719Z,19.90
2019-06-08T20:12:03.562Z,19.90
2019-06-08T20:14:32.400Z,19.80
2019-06-08T20:17:01.248Z,19.60
2019-06-08T20:19:30.108Z,19.70
2019-06-08T20:21:58.965Z,19.60
2019-06-08T20:24:28.006Z,19.60
2019-06-08T20:26:56.642Z,19.60
2019-06-08T20:29:27.950Z,19.60
2019-06-08T20:31:54.337Z,19.50
2019-06-08T20:34:23.189Z,19.50
2019-06-08T20:36:52.766Z,19.50
2019-06-08T20:39:20.889Z,19.50
2019-06-08T20:41:51.542Z,19.50
2019-06-08T20:44:18.582Z,19.40
2019-06-08T20:46:49.458Z,19.10
2019-06-08T20:49:17.254Z,18.90
2019-06-08T20:51:45.152Z,18.80
2019-06-08T20:54:14.003Z,18.70
2019-06-08T20:56:43.017Z,18.80
2019-06-08T20:59:26.312Z,18.80
2019-06-08T21:01:42.055Z,18.80
2019-06-08T21:04:10.911Z,18.80
2019-06-08T21:06:39.753Z,18.80
2019-06-08T21:09:08.595Z,18.70
2019-06-08T21:11:38.036Z,18.50
2019-06-08T21:14:06.300Z,18.30
2019-06-08T21:16:38.127Z,18.30
2019-06-08T21:19:06.906Z,18.30
2019-06-08T21:21:33.599Z,18.30
2019-06-08T21:24:03.193Z,18.20
2019-06-08T21:26:32.049Z,18.30
2019-06-08T21:29:00.946Z,18.40
2019-06-08T21:31:29.754Z,18.30
2019-06-08T21:34:00.755Z,18.20
2019-06-08T21:36:27.474Z,18.20
2019-06-08T21:39:00.542Z,18.30
2019-06-08T21:41:27.744Z,18.20
2019-06-08T21:43:59.597Z,18.00
2019-06-08T21:48:54.566Z,17.90
2019-06-08T21:51:25.529Z,17.90
2019-06-08T21:53:52.546Z,18.00
2019-06-08T21:56:20.347Z,17.90
2019-06-08T21:58:50.323Z,17.80
2019-06-08T22:01:18.813Z,17.70
2019-06-08T22:03:47.655Z,17.60
2019-06-08T22:06:17.709Z,17.70
2019-06-08T22:08:45.367Z,17.70
2019-06-08T22:11:14.964Z,17.70
2019-06-08T22:13:43.812Z,17.70
2019-06-08T22:16:12.666Z,17.70
2019-06-08T22:18:41.497Z,17.70
2019-06-08T22:21:10.340Z,17.80
2019-06-08T22:23:39.939Z,17.80
2019-06-08T22:26:09.531Z,17.80
2019-06-08T22:28:38.377Z,17.70
2019-06-08T22:31:07.958Z,17.60
2019-06-08T22:33:37.847Z,17.60
2019-06-08T22:36:04.918Z,17.50
2019-06-08T22:38:33.769Z,17.30
2019-06-08T22:41:03.544Z,17.20
2019-06-08T22:43:31.457Z,17.10
2019-06-08T22:48:30.466Z,17.00
2019-06-08T22:51:01.448Z,16.80
2019-06-08T22:53:28.157Z,16.80
2019-06-08T22:55:59.651Z,16.80
2019-06-08T22:58:27.670Z,16.90
2019-06-08T23:00:56.123Z,17.00
2019-06-08T23:03:23.509Z,17.00
2019-06-08T23:05:54.803Z,17.00
2019-06-08T23:08:21.927Z,16.80
2019-06-08T23:10:50.779Z,16.80
2019-06-08T23:13:19.636Z,16.80
2019-06-08T23:15:48.477Z,16.80
2019-06-08T23:18:18.108Z,16.80
2019-06-08T23:20:47.898Z,16.80
2019-06-08T23:23:15.006Z,16.80
2019-06-08T23:25:43.858Z,16.80
2019-06-08T23:28:12.696Z,16.70
2019-06-08T23:33:11.816Z,16.60
2019-06-08T23:36:07.700Z,16.60
2019-06-08T23:38:09.455Z,16.50
2019-06-08T23:40:37.944Z,16.50
2019-06-08T23:43:06.382Z,16.50
2019-06-08T23:45:35.211Z,16.40
2019-06-08T23:48:04.665Z,16.60
2019-06-08T23:50:32.900Z,16.60
2019-06-08T23:53:02.379Z,16.60
2019-06-08T23:55:30.570Z,16.60
2019-06-08T23:58:00.408Z,16.60
